sensor_id;sensor_type;location;lat;lon;timestamp;pressure;altitude;pressure_sealevel;temperature;humidity
12868;BME280;33517;49.866;8.320;2024-03-06T00:01:03;100590.56;;;6.74;89.53
12868;BME280;33517;49.866;8.320;2024-03-06T00:03:55;100602.81;;;6.74;89.82
12868;BME280;33517;49.866;8.320;2024-03-06T00:06:47;100600.88;;;6.76;90.37
12868;BME280;33517;49.866;8.320;2024-03-06T00:09:42;100598.16;;;6.77;90.03
12868;BME280;33517;49.866;8.320;2024-03-06T00:12:35;100601.59;;;6.78;90.37
12868;BME280;33517;49.866;8.320;2024-03-06T00:15:27;100608.19;;;6.82;90.57
12868;BME280;33517;49.866;8.320;2024-03-06T00:18:20;100608.34;;;6.80;90.22
12868;BME280;33517;49.866;8.320;2024-03-06T00:21:12;100613.00;;;6.67;90.38
12868;BME280;33517;49.866;8.320;2024-03-06T00:24:04;100616.28;;;6.50;91.36
12868;BME280;33517;49.866;8.320;2024-03-06T00:26:57;100619.28;;;6.45;91.66
12868;BME280;33517;49.866;8.320;2024-03-06T00:29:48;100617.50;;;6.46;91.60
12868;BME280;33517;49.866;8.320;2024-03-06T00:32:40;100618.34;;;6.46;91.51
12868;BME280;33517;49.866;8.320;2024-03-06T00:35:33;100628.34;;;6.41;91.26
12868;BME280;33517;49.866;8.320;2024-03-06T00:38:25;100629.16;;;6.32;90.08
12868;BME280;33517;49.866;8.320;2024-03-06T00:41:17;100636.94;;;6.23;90.78
12868;BME280;33517;49.866;8.320;2024-03-06T00:44:09;100630.59;;;6.16;91.02
12868;BME280;33517;49.866;8.320;2024-03-06T00:47:01;100633.75;;;6.10;90.82
12868;BME280;33517;49.866;8.320;2024-03-06T00:49:53;100629.31;;;6.01;91.43
12868;BME280;33517;49.866;8.320;2024-03-06T00:52:46;100628.50;;;6.10;92.01
12868;BME280;33517;49.866;8.320;2024-03-06T00:55:39;100629.63;;;6.17;92.06
12868;BME280;33517;49.866;8.320;2024-03-06T00:58:31;100630.59;;;6.16;91.81
12868;BME280;33517;49.866;8.320;2024-03-06T01:01:22;100636.53;;;6.18;92.09
12868;BME280;33517;49.866;8.320;2024-03-06T01:04:15;100645.03;;;6.10;92.46
12868;BME280;33517;49.866;8.320;2024-03-06T01:07:07;100655.09;;;5.74;92.65
12868;BME280;33517;49.866;8.320;2024-03-06T01:10:00;100656.19;;;5.50;94.31
12868;BME280;33517;49.866;8.320;2024-03-06T01:12:53;100654.00;;;5.55;93.84
12868;BME280;33517;49.866;8.320;2024-03-06T01:15:45;100653.06;;;5.56;93.04
12868;BME280;33517;49.866;8.320;2024-03-06T01:18:36;100659.22;;;5.55;93.22
12868;BME280;33517;49.866;8.320;2024-03-06T01:21:28;100673.81;;;5.58;93.72
12868;BME280;33517;49.866;8.320;2024-03-06T01:24:20;100667.53;;;5.60;93.96
12868;BME280;33517;49.866;8.320;2024-03-06T01:27:14;100672.78;;;5.49;94.77
12868;BME280;33517;49.866;8.320;2024-03-06T01:30:06;100668.41;;;5.50;95.46
12868;BME280;33517;49.866;8.320;2024-03-06T01:32:59;100676.44;;;5.58;94.33
12868;BME280;33517;49.866;8.320;2024-03-06T01:35:51;100675.72;;;5.56;93.38
12868;BME280;33517;49.866;8.320;2024-03-06T01:38:43;100670.16;;;5.49;93.06
12868;BME280;33517;49.866;8.320;2024-03-06T01:41:36;100664.50;;;5.44;92.90
12868;BME280;33517;49.866;8.320;2024-03-06T01:44:30;100664.06;;;5.39;93.37
12868;BME280;33517;49.866;8.320;2024-03-06T01:47:21;100664.56;;;5.33;92.69
12868;BME280;33517;49.866;8.320;2024-03-06T01:50:14;100668.38;;;5.29;93.17
12868;BME280;33517;49.866;8.320;2024-03-06T01:53:06;100673.84;;;5.26;94.05
12868;BME280;33517;49.866;8.320;2024-03-06T01:55:58;100672.56;;;5.21;93.91
12868;BME280;33517;49.866;8.320;2024-03-06T01:58:50;100675.44;;;5.18;93.63
12868;BME280;33517;49.866;8.320;2024-03-06T02:01:44;100679.34;;;5.12;93.90
12868;BME280;33517;49.866;8.320;2024-03-06T02:04:36;100666.81;;;5.06;94.04
12868;BME280;33517;49.866;8.320;2024-03-06T02:07:28;100667.66;;;5.07;94.61
12868;BME280;33517;49.866;8.320;2024-03-06T02:10:22;100665.03;;;5.07;94.72
12868;BME280;33517;49.866;8.320;2024-03-06T02:13:14;100664.06;;;5.08;95.04
12868;BME280;33517;49.866;8.320;2024-03-06T02:16:06;100670.34;;;5.05;95.09
12868;BME280;33517;49.866;8.320;2024-03-06T02:18:59;100664.06;;;5.08;95.70
12868;BME280;33517;49.866;8.320;2024-03-06T02:21:52;100668.09;;;5.12;95.98
12868;BME280;33517;49.866;8.320;2024-03-06T02:24:47;100675.06;;;5.11;96.04
12868;BME280;33517;49.866;8.320;2024-03-06T02:27:40;100663.94;;;5.09;96.30
12868;BME280;33517;49.866;8.320;2024-03-06T02:30:31;100664.19;;;5.06;96.20
12868;BME280;33517;49.866;8.320;2024-03-06T02:33:27;100671.19;;;5.06;96.31
12868;BME280;33517;49.866;8.320;2024-03-06T02:36:19;100661.59;;;5.06;96.63
12868;BME280;33517;49.866;8.320;2024-03-06T02:39:12;100663.94;;;5.09;96.81
12868;BME280;33517;49.866;8.320;2024-03-06T02:42:05;100659.44;;;5.11;96.36
12868;BME280;33517;49.866;8.320;2024-03-06T02:44:57;100665.41;;;5.02;97.03
12868;BME280;33517;49.866;8.320;2024-03-06T02:47:49;100671.75;;;4.78;96.69
12868;BME280;33517;49.866;8.320;2024-03-06T02:50:41;100672.50;;;4.46;97.57
12868;BME280;33517;49.866;8.320;2024-03-06T02:53:33;100670.97;;;4.44;98.75
12868;BME280;33517;49.866;8.320;2024-03-06T02:56:26;100661.84;;;4.49;97.81
12868;BME280;33517;49.866;8.320;2024-03-06T02:59:18;100658.16;;;4.52;97.90
12868;BME280;33517;49.866;8.320;2024-03-06T03:02:10;100665.63;;;4.56;97.63
12868;BME280;33517;49.866;8.320;2024-03-06T03:05:02;100666.91;;;4.62;97.63
12868;BME280;33517;49.866;8.320;2024-03-06T03:07:55;100670.22;;;4.64;97.62
12868;BME280;33517;49.866;8.320;2024-03-06T03:10:47;100674.50;;;4.65;97.30
12868;BME280;33517;49.866;8.320;2024-03-06T03:13:40;100669.78;;;4.59;97.20
12868;BME280;33517;49.866;8.320;2024-03-06T03:16:32;100676.16;;;4.55;97.47
12868;BME280;33517;49.866;8.320;2024-03-06T03:19:24;100677.09;;;4.54;97.48
12868;BME280;33517;49.866;8.320;2024-03-06T03:22:16;100682.81;;;4.59;97.45
12868;BME280;33517;49.866;8.320;2024-03-06T03:25:08;100684.44;;;4.60;96.84
12868;BME280;33517;49.866;8.320;2024-03-06T03:28:00;100678.66;;;4.56;96.41
12868;BME280;33517;49.866;8.320;2024-03-06T03:30:54;100678.66;;;4.56;96.45
12868;BME280;33517;49.866;8.320;2024-03-06T03:33:47;100684.31;;;4.61;97.27
12868;BME280;33517;49.866;8.320;2024-03-06T03:36:42;100688.22;;;4.67;96.97
12868;BME280;33517;49.866;8.320;2024-03-06T03:39:34;100686.00;;;4.51;97.54
12868;BME280;33517;49.866;8.320;2024-03-06T03:42:26;100693.22;;;4.59;97.82
12868;BME280;33517;49.866;8.320;2024-03-06T03:45:18;100689.44;;;4.63;97.48
12868;BME280;33517;49.866;8.320;2024-03-06T03:48:12;100699.84;;;4.63;97.03
12868;BME280;33517;49.866;8.320;2024-03-06T03:51:04;100691.66;;;4.67;97.34
12868;BME280;33517;49.866;8.320;2024-03-06T03:53:57;100687.75;;;4.73;96.95
12868;BME280;33517;49.866;8.320;2024-03-06T03:56:49;100695.06;;;4.79;97.52
12868;BME280;33517;49.866;8.320;2024-03-06T03:59:41;100703.03;;;4.78;96.60
12868;BME280;33517;49.866;8.320;2024-03-06T04:02:33;100695.34;;;4.76;96.47
12868;BME280;33517;49.866;8.320;2024-03-06T04:05:26;100707.66;;;4.74;95.96
12868;BME280;33517;49.866;8.320;2024-03-06T04:08:18;100701.97;;;4.69;95.73
12868;BME280;33517;49.866;8.320;2024-03-06T04:11:10;100700.44;;;4.66;95.64
12868;BME280;33517;49.866;8.320;2024-03-06T04:14:02;100706.72;;;4.64;95.58
12868;BME280;33517;49.866;8.320;2024-03-06T04:16:54;100707.78;;;4.61;96.02
12868;BME280;33517;49.866;8.320;2024-03-06T04:19:46;100712.97;;;4.61;96.88
12868;BME280;33517;49.866;8.320;2024-03-06T04:22:40;100709.56;;;4.61;97.27
12868;BME280;33517;49.866;8.320;2024-03-06T04:25:32;100716.44;;;4.62;97.55
12868;BME280;33517;49.866;8.320;2024-03-06T04:28:23;100713.59;;;4.65;97.51
12868;BME280;33517;49.866;8.320;2024-03-06T04:31:15;100714.06;;;4.59;97.07
12868;BME280;33517;49.866;8.320;2024-03-06T04:34:07;100721.66;;;4.51;96.51
12868;BME280;33517;49.866;8.320;2024-03-06T04:37:00;100721.16;;;4.46;96.54
12868;BME280;33517;49.866;8.320;2024-03-06T04:39:54;100729.81;;;4.46;96.88
12868;BME280;33517;49.866;8.320;2024-03-06T04:42:46;100728.75;;;4.49;96.99
12868;BME280;33517;49.866;8.320;2024-03-06T04:45:38;100733.13;;;4.48;97.55
12868;BME280;33517;49.866;8.320;2024-03-06T04:48:30;100743.56;;;4.48;97.38
12868;BME280;33517;49.866;8.320;2024-03-06T04:51:22;100743.69;;;4.47;97.68
12868;BME280;33517;49.866;8.320;2024-03-06T04:54:14;100749.81;;;4.35;97.45
12868;BME280;33517;49.866;8.320;2024-03-06T04:57:08;100755.84;;;4.24;97.74
12868;BME280;33517;49.866;8.320;2024-03-06T05:00:00;100755.28;;;4.21;98.32
12868;BME280;33517;49.866;8.320;2024-03-06T05:02:55;100762.00;;;4.23;98.46
12868;BME280;33517;49.866;8.320;2024-03-06T05:05:47;100768.50;;;4.29;98.30
12868;BME280;33517;49.866;8.320;2024-03-06T05:08:39;100761.06;;;4.24;97.74
12868;BME280;33517;49.866;8.320;2024-03-06T05:11:31;100762.25;;;4.20;97.28
12868;BME280;33517;49.866;8.320;2024-03-06T05:14:24;100774.88;;;4.14;97.21
12868;BME280;33517;49.866;8.320;2024-03-06T05:17:16;100777.50;;;4.14;97.78
12868;BME280;33517;49.866;8.320;2024-03-06T05:20:09;100775.91;;;4.00;97.99
12868;BME280;33517;49.866;8.320;2024-03-06T05:23:02;100776.69;;;3.79;98.36
12868;BME280;33517;49.866;8.320;2024-03-06T05:25:54;100771.22;;;3.70;99.16
12868;BME280;33517;49.866;8.320;2024-03-06T05:28:46;100776.09;;;3.75;99.35
12868;BME280;33517;49.866;8.320;2024-03-06T05:31:39;100779.31;;;3.79;99.24
12868;BME280;33517;49.866;8.320;2024-03-06T05:34:31;100784.97;;;3.84;99.57
12868;BME280;33517;49.866;8.320;2024-03-06T05:37:23;100796.56;;;3.80;99.29
12868;BME280;33517;49.866;8.320;2024-03-06T05:40:15;100801.84;;;3.67;100.00
12868;BME280;33517;49.866;8.320;2024-03-06T05:43:07;100806.94;;;3.68;100.00
12868;BME280;33517;49.866;8.320;2024-03-06T05:45:59;100804.94;;;3.72;99.93
12868;BME280;33517;49.866;8.320;2024-03-06T05:48:52;100801.41;;;3.73;99.08
12868;BME280;33517;49.866;8.320;2024-03-06T05:51:44;100810.13;;;3.72;98.97
12868;BME280;33517;49.866;8.320;2024-03-06T05:54:36;100811.66;;;3.63;99.24
12868;BME280;33517;49.866;8.320;2024-03-06T05:57:28;100813.19;;;3.66;99.65
12868;BME280;33517;49.866;8.320;2024-03-06T06:00:20;100820.94;;;3.79;100.00
12868;BME280;33517;49.866;8.320;2024-03-06T06:03:12;100821.69;;;3.92;100.00
12868;BME280;33517;49.866;8.320;2024-03-06T06:06:06;100818.91;;;4.06;99.94
12868;BME280;33517;49.866;8.320;2024-03-06T06:08:58;100830.84;;;4.08;99.50
12868;BME280;33517;49.866;8.320;2024-03-06T06:11:50;100828.97;;;4.10;98.63
12868;BME280;33517;49.866;8.320;2024-03-06T06:14:43;100833.00;;;4.14;98.70
12868;BME280;33517;49.866;8.320;2024-03-06T06:17:34;100836.00;;;4.21;98.58
12868;BME280;33517;49.866;8.320;2024-03-06T06:20:28;100836.47;;;4.26;98.58
12868;BME280;33517;49.866;8.320;2024-03-06T06:23:21;100847.88;;;4.36;98.94
12868;BME280;33517;49.866;8.320;2024-03-06T06:26:14;100847.91;;;4.47;99.49
12868;BME280;33517;49.866;8.320;2024-03-06T06:29:06;100851.91;;;4.40;98.60
12868;BME280;33517;49.866;8.320;2024-03-06T06:31:58;100852.91;;;4.15;98.97
12868;BME280;33517;49.866;8.320;2024-03-06T06:34:50;100859.22;;;4.35;100.00
12868;BME280;33517;49.866;8.320;2024-03-06T06:37:42;100856.31;;;4.50;99.64
12868;BME280;33517;49.866;8.320;2024-03-06T06:40:36;100858.13;;;4.61;99.01
12868;BME280;33517;49.866;8.320;2024-03-06T06:43:27;100865.09;;;4.72;98.40
12868;BME280;33517;49.866;8.320;2024-03-06T06:46:19;100866.91;;;4.82;98.03
12868;BME280;33517;49.866;8.320;2024-03-06T06:49:11;100868.44;;;4.96;97.75
12868;BME280;33517;49.866;8.320;2024-03-06T06:52:03;100867.28;;;5.11;97.68
12868;BME280;33517;49.866;8.320;2024-03-06T06:54:55;100872.09;;;5.26;97.67
12868;BME280;33517;49.866;8.320;2024-03-06T06:57:48;100888.47;;;5.39;97.35
12868;BME280;33517;49.866;8.320;2024-03-06T07:00:41;100888.47;;;5.50;97.54
12868;BME280;33517;49.866;8.320;2024-03-06T07:03:33;100888.19;;;5.64;97.46
12868;BME280;33517;49.866;8.320;2024-03-06T07:06:25;100882.69;;;5.79;96.81
12868;BME280;33517;49.866;8.320;2024-03-06T07:09:17;100894.09;;;5.78;96.05
12868;BME280;33517;49.866;8.320;2024-03-06T07:12:09;100893.31;;;5.55;94.92
12868;BME280;33517;49.866;8.320;2024-03-06T07:15:03;100896.25;;;5.84;96.36
12868;BME280;33517;49.866;8.320;2024-03-06T07:17:55;100894.34;;;6.17;96.11
12868;BME280;33517;49.866;8.320;2024-03-06T07:20:47;100895.91;;;6.40;95.35
12868;BME280;33517;49.866;8.320;2024-03-06T07:23:40;100895.84;;;6.51;93.79
12868;BME280;33517;49.866;8.320;2024-03-06T07:26:32;100894.50;;;6.57;93.37
12868;BME280;33517;49.866;8.320;2024-03-06T07:29:24;100903.31;;;6.56;93.17
12868;BME280;33517;49.866;8.320;2024-03-06T07:32:17;100910.66;;;6.62;93.01
12868;BME280;33517;49.866;8.320;2024-03-06T07:35:09;100903.25;;;6.67;91.82
12868;BME280;33517;49.866;8.320;2024-03-06T07:38:02;100913.06;;;6.75;93.38
12868;BME280;33517;49.866;8.320;2024-03-06T07:40:55;100919.91;;;6.87;91.86
12868;BME280;33517;49.866;8.320;2024-03-06T07:43:47;100915.94;;;6.92;91.10
12868;BME280;33517;49.866;8.320;2024-03-06T07:46:39;100923.88;;;7.11;91.42
12868;BME280;33517;49.866;8.320;2024-03-06T07:49:32;100923.59;;;7.44;91.74
12868;BME280;33517;49.866;8.320;2024-03-06T07:52:24;100926.00;;;7.57;90.59
12868;BME280;33517;49.866;8.320;2024-03-06T07:55:16;100925.50;;;7.82;90.58
12868;BME280;33517;49.866;8.320;2024-03-06T07:58:09;100923.91;;;8.29;90.84
12868;BME280;33517;49.866;8.320;2024-03-06T08:01:01;100937.72;;;8.50;88.80
12868;BME280;33517;49.866;8.320;2024-03-06T08:03:53;100941.13;;;8.89;88.00
12868;BME280;33517;49.866;8.320;2024-03-06T08:06:47;100939.00;;;9.11;88.18
12868;BME280;33517;49.866;8.320;2024-03-06T08:09:38;100937.75;;;9.15;87.23
12868;BME280;33517;49.866;8.320;2024-03-06T08:12:30;100943.84;;;9.16;85.93
12868;BME280;33517;49.866;8.320;2024-03-06T08:15:22;100944.88;;;9.32;86.59
12868;BME280;33517;49.866;8.320;2024-03-06T08:18:14;100943.50;;;9.28;86.26
12868;BME280;33517;49.866;8.320;2024-03-06T08:21:06;100943.69;;;9.54;86.53
12868;BME280;33517;49.866;8.320;2024-03-06T08:23:59;100951.41;;;9.56;82.41
12868;BME280;33517;49.866;8.320;2024-03-06T08:26:51;100946.25;;;9.91;83.70
12868;BME280;33517;49.866;8.320;2024-03-06T08:29:43;100948.22;;;10.16;81.41
12868;BME280;33517;49.866;8.320;2024-03-06T08:32:35;100946.25;;;10.18;80.40
12868;BME280;33517;49.866;8.320;2024-03-06T08:35:29;100955.50;;;9.95;79.65
12868;BME280;33517;49.866;8.320;2024-03-06T08:38:21;100951.19;;;10.21;79.09
12868;BME280;33517;49.866;8.320;2024-03-06T08:41:15;100949.34;;;10.31;78.34
12868;BME280;33517;49.866;8.320;2024-03-06T08:44:07;100953.78;;;11.17;79.25
12868;BME280;33517;49.866;8.320;2024-03-06T08:46:59;100954.53;;;12.11;76.10
12868;BME280;33517;49.866;8.320;2024-03-06T08:49:51;100956.25;;;12.36;73.11
12868;BME280;33517;49.866;8.320;2024-03-06T08:52:43;100960.34;;;13.19;72.61
12868;BME280;33517;49.866;8.320;2024-03-06T08:55:35;100964.56;;;13.52;71.54
12868;BME280;33517;49.866;8.320;2024-03-06T08:58:28;100969.34;;;13.56;69.78
12868;BME280;33517;49.866;8.320;2024-03-06T09:01:20;100969.94;;;13.28;69.53
12868;BME280;33517;49.866;8.320;2024-03-06T09:04:12;100968.63;;;13.16;72.26
12868;BME280;33517;49.866;8.320;2024-03-06T09:07:04;100971.56;;;13.37;71.59
12868;BME280;33517;49.866;8.320;2024-03-06T09:09:56;100977.72;;;12.89;69.66
12868;BME280;33517;49.866;8.320;2024-03-06T09:12:48;100972.97;;;13.55;70.84
12868;BME280;33517;49.866;8.320;2024-03-06T09:15:41;100973.84;;;14.70;68.20
12868;BME280;33517;49.866;8.320;2024-03-06T09:18:33;100971.53;;;17.68;62.41
12868;BME280;33517;49.866;8.320;2024-03-06T09:21:25;100983.25;;;22.71;53.90
12868;BME280;33517;49.866;8.320;2024-03-06T09:24:17;100995.97;;;24.48;49.32
12868;BME280;33517;49.866;8.320;2024-03-06T09:27:09;100996.34;;;25.34;46.44
12868;BME280;33517;49.866;8.320;2024-03-06T09:30:01;101010.66;;;27.23;43.59
12868;BME280;33517;49.866;8.320;2024-03-06T09:32:55;101017.22;;;28.51;40.58
12868;BME280;33517;49.866;8.320;2024-03-06T09:35:47;101009.25;;;26.84;42.19
12868;BME280;33517;49.866;8.320;2024-03-06T09:38:39;101010.72;;;22.97;45.23
12868;BME280;33517;49.866;8.320;2024-03-06T09:41:31;101010.13;;;20.40;47.47
12868;BME280;33517;49.866;8.320;2024-03-06T09:44:23;101004.69;;;20.08;48.97
12868;BME280;33517;49.866;8.320;2024-03-06T09:47:19;101002.28;;;20.45;48.12
12868;BME280;33517;49.866;8.320;2024-03-06T09:50:16;100998.09;;;23.09;45.15
12868;BME280;33517;49.866;8.320;2024-03-06T09:53:12;100996.28;;;25.29;41.12
12868;BME280;33517;49.866;8.320;2024-03-06T09:56:07;101007.50;;;26.99;39.72
12868;BME280;33517;49.866;8.320;2024-03-06T09:58:59;100997.88;;;28.07;38.30
12868;BME280;33517;49.866;8.320;2024-03-06T10:01:54;100990.63;;;27.24;38.31
12868;BME280;33517;49.866;8.320;2024-03-06T10:04:46;100998.00;;;26.65;37.80
12868;BME280;33517;49.866;8.320;2024-03-06T10:07:40;101002.94;;;26.47;37.25
12868;BME280;33517;49.866;8.320;2024-03-06T10:10:32;100994.34;;;25.80;36.70
12868;BME280;33517;49.866;8.320;2024-03-06T10:13:24;100999.81;;;25.13;38.55
12868;BME280;33517;49.866;8.320;2024-03-06T10:16:16;100996.03;;;25.47;38.32
12868;BME280;33517;49.866;8.320;2024-03-06T10:19:15;100989.34;;;26.36;37.91
12868;BME280;33517;49.866;8.320;2024-03-06T10:22:09;100993.19;;;27.92;37.49
12868;BME280;33517;49.866;8.320;2024-03-06T10:25:05;100992.28;;;29.44;35.59
12868;BME280;33517;49.866;8.320;2024-03-06T10:28:06;100991.00;;;28.81;34.77
12868;BME280;33517;49.866;8.320;2024-03-06T10:31:03;100993.25;;;30.42;33.23
12868;BME280;33517;49.866;8.320;2024-03-06T10:33:56;100997.03;;;30.85;32.51
12868;BME280;33517;49.866;8.320;2024-03-06T10:36:53;100996.84;;;30.33;31.33
12868;BME280;33517;49.866;8.320;2024-03-06T10:39:47;100995.41;;;27.95;32.97
12868;BME280;33517;49.866;8.320;2024-03-06T10:42:46;100988.88;;;26.18;35.09
12868;BME280;33517;49.866;8.320;2024-03-06T10:45:47;100995.06;;;23.05;38.06
12868;BME280;33517;49.866;8.320;2024-03-06T10:48:40;100992.78;;;22.08;38.99
12868;BME280;33517;49.866;8.320;2024-03-06T10:51:33;100997.28;;;21.53;39.41
12868;BME280;33517;49.866;8.320;2024-03-06T10:54:27;100995.13;;;20.70;40.63
12868;BME280;33517;49.866;8.320;2024-03-06T10:57:20;100999.06;;;20.36;41.36
12868;BME280;33517;49.866;8.320;2024-03-06T11:00:14;100997.59;;;19.89;41.79
12868;BME280;33517;49.866;8.320;2024-03-06T11:03:09;100998.28;;;20.16;41.89
12868;BME280;33517;49.866;8.320;2024-03-06T11:06:02;101001.88;;;20.48;41.69
12868;BME280;33517;49.866;8.320;2024-03-06T11:08:55;100999.94;;;20.24;42.70
12868;BME280;33517;49.866;8.320;2024-03-06T11:11:48;100997.66;;;20.27;42.17
12868;BME280;33517;49.866;8.320;2024-03-06T11:14:40;100999.13;;;20.10;42.18
12868;BME280;33517;49.866;8.320;2024-03-06T11:17:33;101009.59;;;19.54;43.45
12868;BME280;33517;49.866;8.320;2024-03-06T11:20:33;101001.00;;;19.13;43.94
12868;BME280;33517;49.866;8.320;2024-03-06T11:23:25;101002.84;;;19.12;44.31
12868;BME280;33517;49.866;8.320;2024-03-06T11:26:17;100998.50;;;19.51;43.69
12868;BME280;33517;49.866;8.320;2024-03-06T11:29:10;100997.34;;;19.97;43.53
12868;BME280;33517;49.866;8.320;2024-03-06T11:32:05;100995.47;;;20.80;43.11
12868;BME280;33517;49.866;8.320;2024-03-06T11:35:02;100997.81;;;20.94;42.81
12868;BME280;33517;49.866;8.320;2024-03-06T11:37:54;101001.50;;;20.38;42.74
12868;BME280;33517;49.866;8.320;2024-03-06T11:40:48;100999.81;;;19.99;42.90
12868;BME280;33517;49.866;8.320;2024-03-06T11:43:42;101000.59;;;19.22;43.95
12868;BME280;33517;49.866;8.320;2024-03-06T11:46:41;100995.47;;;19.01;44.78
12868;BME280;33517;49.866;8.320;2024-03-06T11:49:34;100999.16;;;18.94;44.92
12868;BME280;33517;49.866;8.320;2024-03-06T11:52:29;100995.66;;;18.54;45.61
12868;BME280;33517;49.866;8.320;2024-03-06T11:55:21;100997.28;;;18.01;46.36
12868;BME280;33517;49.866;8.320;2024-03-06T11:58:16;100999.38;;;17.65;46.80
12868;BME280;33517;49.866;8.320;2024-03-06T12:01:08;100995.19;;;17.90;47.09
12868;BME280;33517;49.866;8.320;2024-03-06T12:04:00;100991.19;;;18.20;46.61
12868;BME280;33517;49.866;8.320;2024-03-06T12:06:52;100985.66;;;18.22;46.15
12868;BME280;33517;49.866;8.320;2024-03-06T12:09:45;100987.97;;;18.38;46.36
12868;BME280;33517;49.866;8.320;2024-03-06T12:12:37;100992.59;;;18.90;46.01
12868;BME280;33517;49.866;8.320;2024-03-06T12:15:29;100994.88;;;19.06;45.40
12868;BME280;33517;49.866;8.320;2024-03-06T12:18:21;100997.72;;;18.78;45.29
12868;BME280;33517;49.866;8.320;2024-03-06T12:21:13;100992.47;;;18.37;46.79
12868;BME280;33517;49.866;8.320;2024-03-06T12:24:06;100993.38;;;17.97;47.55
12868;BME280;33517;49.866;8.320;2024-03-06T12:27:02;100999.91;;;17.88;47.60
12868;BME280;33517;49.866;8.320;2024-03-06T12:29:55;100993.47;;;17.70;47.81
12868;BME280;33517;49.866;8.320;2024-03-06T12:32:56;101000.19;;;18.06;47.61
12868;BME280;33517;49.866;8.320;2024-03-06T12:35:48;100992.38;;;18.05;47.78
12868;BME280;33517;49.866;8.320;2024-03-06T12:38:40;100988.38;;;18.28;47.09
12868;BME280;33517;49.866;8.320;2024-03-06T12:41:31;100995.03;;;18.65;46.97
12868;BME280;33517;49.866;8.320;2024-03-06T12:44:25;100991.97;;;19.34;46.53
12868;BME280;33517;49.866;8.320;2024-03-06T12:47:17;100989.09;;;19.15;46.46
12868;BME280;33517;49.866;8.320;2024-03-06T12:50:09;100989.13;;;18.83;46.63
12868;BME280;33517;49.866;8.320;2024-03-06T12:53:01;100980.91;;;18.71;46.74
12868;BME280;33517;49.866;8.320;2024-03-06T12:55:55;100984.47;;;18.37;46.88
12868;BME280;33517;49.866;8.320;2024-03-06T12:58:47;100980.16;;;18.23;47.03
12868;BME280;33517;49.866;8.320;2024-03-06T13:01:40;100981.06;;;17.90;47.37
12868;BME280;33517;49.866;8.320;2024-03-06T13:04:32;100981.63;;;17.79;47.55
12868;BME280;33517;49.866;8.320;2024-03-06T13:07:24;100983.31;;;17.52;48.05
12868;BME280;33517;49.866;8.320;2024-03-06T13:10:18;100978.72;;;17.39;48.16
12868;BME280;33517;49.866;8.320;2024-03-06T13:13:10;100980.75;;;17.10;48.73
12868;BME280;33517;49.866;8.320;2024-03-06T13:16:02;100975.94;;;17.20;48.53
12868;BME280;33517;49.866;8.320;2024-03-06T13:18:56;100971.88;;;17.24;48.92
12868;BME280;33517;49.866;8.320;2024-03-06T13:21:50;100977.16;;;16.96;48.56
12868;BME280;33517;49.866;8.320;2024-03-06T13:24:43;100972.69;;;16.97;48.74
12868;BME280;33517;49.866;8.320;2024-03-06T13:27:35;100975.03;;;16.85;49.09
12868;BME280;33517;49.866;8.320;2024-03-06T13:30:27;100969.41;;;16.74;48.80
12868;BME280;33517;49.866;8.320;2024-03-06T13:33:18;100966.84;;;16.59;50.06
12868;BME280;33517;49.866;8.320;2024-03-06T13:36:12;100970.25;;;16.74;50.19
12868;BME280;33517;49.866;8.320;2024-03-06T13:39:04;100973.38;;;16.84;49.84
12868;BME280;33517;49.866;8.320;2024-03-06T13:41:56;100974.00;;;16.58;49.74
12868;BME280;33517;49.866;8.320;2024-03-06T13:44:47;100976.28;;;16.47;49.71
12868;BME280;33517;49.866;8.320;2024-03-06T13:47:40;100982.41;;;16.26;50.02
12868;BME280;33517;49.866;8.320;2024-03-06T13:50:32;100983.38;;;16.04;50.83
12868;BME280;33517;49.866;8.320;2024-03-06T13:53:26;100983.13;;;15.85;50.88
12868;BME280;33517;49.866;8.320;2024-03-06T13:56:18;100985.25;;;15.75;51.51
12868;BME280;33517;49.866;8.320;2024-03-06T13:59:10;100993.13;;;15.68;51.54
12868;BME280;33517;49.866;8.320;2024-03-06T14:02:02;100989.47;;;15.54;51.82
12868;BME280;33517;49.866;8.320;2024-03-06T14:04:54;100992.69;;;15.50;52.12
12868;BME280;33517;49.866;8.320;2024-03-06T14:07:46;100993.25;;;15.37;52.50
12868;BME280;33517;49.866;8.320;2024-03-06T14:10:41;100991.53;;;15.30;52.37
12868;BME280;33517;49.866;8.320;2024-03-06T14:13:33;100991.50;;;15.15;53.04
12868;BME280;33517;49.866;8.320;2024-03-06T14:16:24;100991.06;;;15.12;53.02
12868;BME280;33517;49.866;8.320;2024-03-06T14:19:16;100987.19;;;15.00;53.40
12868;BME280;33517;49.866;8.320;2024-03-06T14:22:09;100988.34;;;14.97;53.69
12868;BME280;33517;49.866;8.320;2024-03-06T14:25:00;100990.81;;;14.99;53.76
12868;BME280;33517;49.866;8.320;2024-03-06T14:27:54;100986.41;;;14.91;54.06
12868;BME280;33517;49.866;8.320;2024-03-06T14:30:46;100998.25;;;15.03;53.92
12868;BME280;33517;49.866;8.320;2024-03-06T14:33:39;100994.91;;;14.87;54.39
12868;BME280;33517;49.866;8.320;2024-03-06T14:36:31;100998.81;;;14.53;54.47
12868;BME280;33517;49.866;8.320;2024-03-06T14:39:23;101003.75;;;14.56;54.96
12868;BME280;33517;49.866;8.320;2024-03-06T14:42:16;101002.16;;;14.47;55.13
12868;BME280;33517;49.866;8.320;2024-03-06T14:45:10;101001.59;;;14.60;55.32
12868;BME280;33517;49.866;8.320;2024-03-06T14:48:02;101007.44;;;14.47;55.34
12868;BME280;33517;49.866;8.320;2024-03-06T14:50:54;101002.75;;;14.35;55.72
12868;BME280;33517;49.866;8.320;2024-03-06T14:53:46;101008.72;;;14.29;55.80
12868;BME280;33517;49.866;8.320;2024-03-06T14:56:38;101008.31;;;14.09;56.52
12868;BME280;33517;49.866;8.320;2024-03-06T14:59:30;101011.53;;;13.97;56.91
12868;BME280;33517;49.866;8.320;2024-03-06T15:02:23;101012.47;;;14.04;56.57
12868;BME280;33517;49.866;8.320;2024-03-06T15:05:15;101007.66;;;14.07;56.97
12868;BME280;33517;49.866;8.320;2024-03-06T15:08:07;101004.38;;;13.97;57.10